createdAt,value
2022-12-27T02:04:25.751Z,3.50
2022-12-27T02:06:52.699Z,3.50
2022-12-27T02:09:23.640Z,3.70
2022-12-27T02:11:56.203Z,4.30
2022-12-27T02:14:28.761Z,3.60
2022-12-27T02:16:56.884Z,3.50
2022-12-27T02:19:33.024Z,4.00
2022-12-27T02:22:53.759Z,3.60
2022-12-27T02:25:36.344Z,3.70
2022-12-27T02:28:14.272Z,3.70
2022-12-27T02:30:44.314Z,4.60
2022-12-27T02:33:14.519Z,3.90
2022-12-27T02:35:44.839Z,3.80
2022-12-27T02:38:14.954Z,3.50
2022-12-27T02:41:03.076Z,3.80
2022-12-27T02:43:48.668Z,3.60
2022-12-27T02:46:39.217Z,3.90
2022-12-27T02:49:42.891Z,4.40
2022-12-27T02:52:46.404Z,3.60
2022-12-27T02:55:25.556Z,3.90
2022-12-27T02:58:01.357Z,3.50
2022-12-27T03:00:47.926Z,4.10
2022-12-27T03:03:46.257Z,3.60
2022-12-27T03:06:45.841Z,3.60
2022-12-27T03:09:56.875Z,3.60
2022-12-27T03:13:08.141Z,3.80
2022-12-27T03:15:55.341Z,3.50
2022-12-27T03:18:31.014Z,3.40
2022-12-27T03:21:18.641Z,3.60
2022-12-27T03:24:05.964Z,3.50
2022-12-27T03:26:35.381Z,3.60
2022-12-27T03:29:22.095Z,3.50
2022-12-27T03:32:11.846Z,3.60
2022-12-27T03:34:43.804Z,4.20
2022-12-27T03:37:31.183Z,3.50
2022-12-27T03:40:07.838Z,3.90
2022-12-27T03:42:57.677Z,3.50
2022-12-27T03:45:46.074Z,3.60
2022-12-27T03:48:19.346Z,3.50
2022-12-27T03:50:53.798Z,3.60
2022-12-27T03:53:27.435Z,3.70
2022-12-27T03:55:54.157Z,3.90
2022-12-27T03:58:20.918Z,3.70
2022-12-27T04:00:47.830Z,4.70
2022-12-27T04:03:14.475Z,3.60
2022-12-27T04:05:41.698Z,4.10
2022-12-27T04:08:29.478Z,3.50
2022-12-27T04:11:14.789Z,3.90
2022-12-27T04:13:59.710Z,4.20
2022-12-27T04:16:44.388Z,3.50
2022-12-27T04:19:29.752Z,3.50
2022-12-27T04:22:14.644Z,3.60
2022-12-27T04:24:59.414Z,3.80
2022-12-27T04:27:44.608Z,3.90
2022-12-27T04:30:30.008Z,3.80
2022-12-27T04:33:14.815Z,3.60
2022-12-27T04:35:41.361Z,3.60
2022-12-27T04:38:07.906Z,4.00
2022-12-27T04:40:52.843Z,4.40
2022-12-27T04:43:38.443Z,4.50
2022-12-27T04:46:23.360Z,3.80
2022-12-27T04:49:07.963Z,4.10
2022-12-27T04:51:52.846Z,3.70
2022-12-27T04:54:39.053Z,3.80
2022-12-27T04:57:05.642Z,4.10
2022-12-27T04:59:51.240Z,3.80
2022-12-27T05:02:19.817Z,4.30
2022-12-27T05:04:47.485Z,3.80
2022-12-27T05:07:33.640Z,4.70
2022-12-27T05:10:21.102Z,4.80
2022-12-27T05:13:05.667Z,4.30
2022-12-27T05:15:32.846Z,4.00
2022-12-27T05:17:59.387Z,3.90
2022-12-27T05:20:25.981Z,4.00
2022-12-27T05:23:10.941Z,5.10
2022-12-27T05:25:40.516Z,4.00
2022-12-27T05:28:09.317Z,4.30
2022-12-27T05:30:38.398Z,3.90
2022-12-27T05:33:05.499Z,4.80
2022-12-27T05:35:33.614Z,4.10
2022-12-27T05:38:00.739Z,4.80
2022-12-27T05:40:27.813Z,4.00
2022-12-27T05:42:54.328Z,4.20
2022-12-27T05:45:20.890Z,3.80
2022-12-27T05:47:48.283Z,4.10
2022-12-27T05:50:14.910Z,4.00
2022-12-27T05:52:41.609Z,3.90
2022-12-27T05:55:08.944Z,4.30
2022-12-27T05:57:35.900Z,3.90
2022-12-27T06:00:03.626Z,3.90
2022-12-27T06:02:39.229Z,3.80
2022-12-27T06:05:07.469Z,4.00
2022-12-27T06:07:35.444Z,3.90
2022-12-27T06:10:02.323Z,3.90
2022-12-27T06:12:29.006Z,4.00
2022-12-27T06:14:55.519Z,3.60
2022-12-27T06:17:22.120Z,4.10
2022-12-27T06:19:53.791Z,3.60
2022-12-27T06:22:24.240Z,3.60
2022-12-27T06:24:50.900Z,3.80
2022-12-27T06:27:17.404Z,3.70
2022-12-27T06:29:44.241Z,3.70
2022-12-27T06:32:11.031Z,3.70
2022-12-27T06:34:37.561Z,3.70
2022-12-27T06:37:04.084Z,3.70
2022-12-27T06:39:31.237Z,3.70
2022-12-27T06:41:57.781Z,3.70
2022-12-27T06:44:25.195Z,4.40
2022-12-27T06:46:51.725Z,4.10
2022-12-27T06:49:18.265Z,3.70
2022-12-27T06:51:44.772Z,3.70
2022-12-27T06:54:11.298Z,3.80
2022-12-27T06:56:38.470Z,4.60
2022-12-27T06:59:05.131Z,3.80
2022-12-27T07:01:37.537Z,3.70
2022-12-27T07:04:04.422Z,4.40
2022-12-27T07:06:31.919Z,3.60
2022-12-27T07:09:00.152Z,3.50
2022-12-27T07:11:26.728Z,3.60
2022-12-27T07:13:55.256Z,3.70
2022-12-27T07:16:23.945Z,3.60
2022-12-27T07:18:50.661Z,3.40
2022-12-27T07:21:20.019Z,3.80
2022-12-27T07:23:46.944Z,3.80
2022-12-27T07:26:15.477Z,3.30
2022-12-27T07:28:42.264Z,3.40
2022-12-27T07:31:10.902Z,3.30
2022-12-27T07:33:37.848Z,3.40
2022-12-27T07:36:07.392Z,3.60
2022-12-27T07:38:34.013Z,3.30
2022-12-27T07:41:01.258Z,3.30
2022-12-27T07:43:29.210Z,3.80
2022-12-27T07:46:01.665Z,3.70
2022-12-27T07:48:28.880Z,3.30
2022-12-27T07:50:55.762Z,3.70
2022-12-27T07:53:22.414Z,3.40
2022-12-27T07:55:50.152Z,3.20
2022-12-27T07:58:17.029Z,3.90
2022-12-27T08:00:44.279Z,3.60
2022-12-27T08:03:10.868Z,5.30
2022-12-27T08:05:38.055Z,3.50
2022-12-27T08:08:05.014Z,3.30
2022-12-27T08:10:33.136Z,3.40
2022-12-27T08:12:59.636Z,3.90
2022-12-27T08:15:26.180Z,3.30
2022-12-27T08:17:52.692Z,3.40
2022-12-27T08:20:19.269Z,3.10
2022-12-27T08:22:46.404Z,4.20
2022-12-27T08:25:12.967Z,3.20
2022-12-27T08:27:39.509Z,3.20
2022-12-27T08:30:07.681Z,4.20
2022-12-27T08:32:34.238Z,3.30
2022-12-27T08:35:18.249Z,3.60
2022-12-27T08:37:47.945Z,4.60
2022-12-27T08:40:14.821Z,3.50
2022-12-27T08:42:41.313Z,3.90
2022-12-27T08:45:08.837Z,4.30
2022-12-27T08:47:36.051Z,3.50
2022-12-27T08:50:02.741Z,3.90
2022-12-27T08:52:29.680Z,4.40
2022-12-27T08:54:56.859Z,3.90
2022-12-27T08:57:25.990Z,4.60
2022-12-27T08:59:52.498Z,3.90
2022-12-27T09:02:19.147Z,4.00
2022-12-27T09:04:46.590Z,3.90
2022-12-27T09:07:13.155Z,3.80
2022-12-27T09:09:39.997Z,4.10
2022-12-27T09:12:09.280Z,4.20
2022-12-27T09:14:36.044Z,4.20
2022-12-27T09:17:02.891Z,4.40
2022-12-27T09:19:31.339Z,4.40
2022-12-27T09:21:57.855Z,4.70
2022-12-27T09:24:24.401Z,4.70
2022-12-27T09:26:51.301Z,4.70
2022-12-27T09:29:18.603Z,4.90
2022-12-27T09:31:45.117Z,4.90
2022-12-27T09:34:17.199Z,5.20
2022-12-27T09:36:43.699Z,4.90
2022-12-27T09:39:12.844Z,4.90
2022-12-27T09:44:52.183Z,5.00
2022-12-27T09:47:23.277Z,5.90
2022-12-27T09:49:53.599Z,5.00
2022-12-27T09:52:26.081Z,5.10
2022-12-27T09:55:05.118Z,5.80
2022-12-27T09:57:41.743Z,5.20
2022-12-27T10:00:16.552Z,5.20
2022-12-27T10:02:58.902Z,5.30
2022-12-27T10:05:31.950Z,5.30
2022-12-27T10:08:18.465Z,5.30
2022-12-27T10:11:37.441Z,5.30
2022-12-27T10:14:16.313Z,5.50
2022-12-27T10:16:50.575Z,5.50
2022-12-27T10:19:26.117Z,5.50
2022-12-27T10:22:08.781Z,5.50
2022-12-27T10:24:40.697Z,5.50
2022-12-27T10:27:15.403Z,5.50
2022-12-27T10:29:48.387Z,5.80
2022-12-27T10:32:16.031Z,5.80
2022-12-27T10:34:42.794Z,5.70
2022-12-27T10:37:15.913Z,5.70
2022-12-27T10:39:43.176Z,5.80
2022-12-27T10:42:41.170Z,5.80
2022-12-27T10:45:31.570Z,5.90
2022-12-27T10:48:13.252Z,5.90
2022-12-27T10:50:49.634Z,6.00
2022-12-27T10:53:37.195Z,6.40
2022-12-27T10:56:13.124Z,6.20
2022-12-27T10:59:10.370Z,6.50
2022-12-27T11:01:41.213Z,6.40
2022-12-27T11:04:19.320Z,6.50
2022-12-27T11:07:29.221Z,6.50
2022-12-27T11:10:18.170Z,6.60
2022-12-27T11:12:57.699Z,6.70
2022-12-27T11:15:58.539Z,7.60
2022-12-27T11:18:35.401Z,6.70
2022-12-27T11:21:21.192Z,6.90
2022-12-27T11:24:50.491Z,7.40
2022-12-27T11:27:44.979Z,7.10
2022-12-27T11:34:48.264Z,7.20
2022-12-27T11:37:26.046Z,7.20
2022-12-27T11:40:23.017Z,7.00
2022-12-27T12:09:20.352Z,6.60
2022-12-27T12:13:01.985Z,6.50
2022-12-27T12:15:46.981Z,6.50
2022-12-27T12:18:42.040Z,6.30
2022-12-27T12:21:24.782Z,6.40
2022-12-27T12:24:31.182Z,6.20
2022-12-27T12:27:27.974Z,6.10
2022-12-27T12:31:10.931Z,6.20
2022-12-27T12:33:59.242Z,6.10
2022-12-27T12:36:52.503Z,6.30
2022-12-27T12:39:28.430Z,6.30
2022-12-27T12:42:37.783Z,6.30
2022-12-27T12:45:32.896Z,6.50
2022-12-27T12:48:21.167Z,6.50
2022-12-27T12:51:23.584Z,6.50
2022-12-27T12:54:09.346Z,6.60
2022-12-27T12:57:06.903Z,6.60
2022-12-27T12:59:55.948Z,6.70
2022-12-27T13:02:54.893Z,6.70
2022-12-27T13:05:28.247Z,6.70
2022-12-27T13:08:10.351Z,7.10
2022-12-27T13:11:48.667Z,6.70
2022-12-27T13:15:06.599Z,6.80
2022-12-27T13:17:41.463Z,6.80
2022-12-27T13:20:34.856Z,6.80
2022-12-27T13:23:13.479Z,6.90
2022-12-27T13:25:51.539Z,7.50
2022-12-27T13:28:54.179Z,7.60
2022-12-27T13:31:34.817Z,7.20
2022-12-27T13:34:33.687Z,7.40
2022-12-27T13:37:19.308Z,7.20
2022-12-27T13:40:40.740Z,8.00
2022-12-27T13:46:52.989Z,7.30
2022-12-27T13:54:05.629Z,7.10
2022-12-27T13:56:53.957Z,7.00
2022-12-27T13:59:43.167Z,7.00
2022-12-27T14:02:43.368Z,6.90
2022-12-27T14:06:15.008Z,6.80
2022-12-27T14:09:24.692Z,6.80
2022-12-27T14:12:09.889Z,6.70
2022-12-27T14:14:39.029Z,6.60
2022-12-27T14:17:22.200Z,7.50
2022-12-27T14:20:24.989Z,6.50
2022-12-27T14:23:22.597Z,6.50
2022-12-27T14:26:22.422Z,6.40
2022-12-27T14:29:24.458Z,6.30
2022-12-27T14:32:18.881Z,6.30
2022-12-27T14:35:26.228Z,6.30
2022-12-27T14:38:15.327Z,6.20
2022-12-27T14:41:00.579Z,6.20
2022-12-27T14:44:09.633Z,6.30
2022-12-27T14:47:11.706Z,6.10
2022-12-27T14:50:10.216Z,6.20
2022-12-27T14:53:02.231Z,6.20
2022-12-27T14:55:49.374Z,7.30
2022-12-27T14:58:44.478Z,6.30
2022-12-27T15:01:19.334Z,6.30
2022-12-27T15:03:58.508Z,6.90
2022-12-27T15:06:50.985Z,6.60
2022-12-27T15:09:29.109Z,6.90
2022-12-27T15:12:12.590Z,6.30
2022-12-27T15:15:14.264Z,6.30
2022-12-27T15:17:53.159Z,6.40
2022-12-27T15:20:44.044Z,6.40
2022-12-27T15:23:22.038Z,6.40
2022-12-27T15:25:59.444Z,6.40
2022-12-27T15:28:36.298Z,6.40
2022-12-27T15:31:09.730Z,6.40
2022-12-27T15:33:47.290Z,6.90
2022-12-27T15:36:16.403Z,6.70
2022-12-27T15:38:53.601Z,6.30
2022-12-27T15:41:26.821Z,6.30
2022-12-27T15:44:29.941Z,6.30
2022-12-27T15:47:40.880Z,6.30
2022-12-27T15:50:27.003Z,6.20
2022-12-27T15:53:17.172Z,6.30
2022-12-27T15:56:05.557Z,6.20
2022-12-27T15:58:34.600Z,6.10
2022-12-27T16:01:28.503Z,6.10
2022-12-27T16:03:57.880Z,6.10
2022-12-27T16:06:57.708Z,6.00
2022-12-27T16:09:36.854Z,6.00
2022-12-27T16:12:10.657Z,5.90
2022-12-27T16:14:42.213Z,6.00
2022-12-27T16:17:33.982Z,6.10
2022-12-27T16:20:14.709Z,6.10
2022-12-27T16:22:48.874Z,6.10
2022-12-27T16:25:30.591Z,6.10
2022-12-27T16:28:03.637Z,6.00
2022-12-27T16:30:39.910Z,6.90
2022-12-27T16:33:34.428Z,6.30
2022-12-27T16:36:17.034Z,6.10
2022-12-27T16:38:48.036Z,6.10
2022-12-27T16:41:27.605Z,6.20
2022-12-27T16:44:13.831Z,6.10
2022-12-27T16:47:02.615Z,6.10
2022-12-27T16:50:03.336Z,6.00
2022-12-27T16:52:48.259Z,6.10
2022-12-27T16:55:52.179Z,6.10
2022-12-27T16:58:31.920Z,6.00
2022-12-27T17:01:00.418Z,6.10
2022-12-27T17:03:43.178Z,6.10
2022-12-27T17:06:46.434Z,6.10
2022-12-27T17:09:42.311Z,6.10
2022-12-27T17:12:23.836Z,6.10
2022-12-27T17:14:57.386Z,6.10
2022-12-27T17:17:24.549Z,6.10
2022-12-27T17:19:56.356Z,6.10
2022-12-27T17:22:28.803Z,6.10
2022-12-27T17:25:01.690Z,6.00
2022-12-27T17:27:46.138Z,6.10
2022-12-27T17:30:21.826Z,6.60
2022-12-27T17:33:19.119Z,6.20
2022-12-27T17:36:08.864Z,6.20
2022-12-27T17:38:45.818Z,6.20
2022-12-27T17:41:45.609Z,6.10
2022-12-27T17:44:39.481Z,6.20
2022-12-27T17:47:42.049Z,6.10
2022-12-27T17:50:14.960Z,6.20
2022-12-27T17:53:00.817Z,6.50
2022-12-27T17:55:46.726Z,5.90
2022-12-27T17:58:15.300Z,6.00
2022-12-27T18:00:52.759Z,6.10
2022-12-27T18:03:21.448Z,5.90
2022-12-27T18:05:49.594Z,5.90
2022-12-27T18:08:24.129Z,6.20
2022-12-27T18:10:50.802Z,6.60
2022-12-27T18:13:20.195Z,5.80
2022-12-27T18:15:49.528Z,5.80
2022-12-27T18:18:19.895Z,6.40
2022-12-27T18:20:54.670Z,5.90
2022-12-27T18:23:21.286Z,5.60
2022-12-27T18:25:56.834Z,5.80
2022-12-27T18:28:32.147Z,6.20
2022-12-27T18:31:02.875Z,5.60
2022-12-27T18:33:33.564Z,5.60
2022-12-27T18:36:05.023Z,5.80
2022-12-27T18:38:37.694Z,5.70
2022-12-27T18:41:08.125Z,5.60
2022-12-27T18:43:34.912Z,5.50
2022-12-27T18:46:03.212Z,5.40
2022-12-27T18:48:56.806Z,6.20
2022-12-27T18:51:30.871Z,5.60
2022-12-27T18:53:58.795Z,5.60
2022-12-27T18:56:29.591Z,5.60
2022-12-27T18:59:01.850Z,6.60
2022-12-27T19:01:37.875Z,5.50
2022-12-27T19:04:21.986Z,5.50
2022-12-27T19:06:54.369Z,5.60
2022-12-27T19:09:23.811Z,5.50
2022-12-27T19:11:53.499Z,5.80
2022-12-27T19:14:22.159Z,5.40
2022-12-27T19:16:52.314Z,5.70
2022-12-27T19:19:23.198Z,5.50
2022-12-27T19:21:50.494Z,5.60
2022-12-27T19:24:48.787Z,5.50
2022-12-27T19:27:35.701Z,5.50
2022-12-27T19:30:05.090Z,5.50
2022-12-27T19:32:33.742Z,5.50
2022-12-27T19:35:02.565Z,6.30
2022-12-27T19:37:31.266Z,5.60
2022-12-27T19:39:58.594Z,5.50
2022-12-27T19:48:38.703Z,5.50
2022-12-27T19:51:07.045Z,5.50
2022-12-27T19:53:38.265Z,5.40
2022-12-27T19:56:06.895Z,5.90
2022-12-27T19:58:34.070Z,5.40
2022-12-27T20:01:01.184Z,5.80
2022-12-27T20:03:28.065Z,5.50
2022-12-27T20:06:13.057Z,5.50
2022-12-27T20:08:45.195Z,5.30
2022-12-27T20:11:14.196Z,5.40
2022-12-27T20:13:41.070Z,5.30
2022-12-27T20:16:09.128Z,5.20
2022-12-27T20:18:37.247Z,5.20
2022-12-27T20:21:05.718Z,5.10
2022-12-27T20:23:32.314Z,5.20
2022-12-27T20:25:59.489Z,6.30
2022-12-27T20:28:27.379Z,5.00
2022-12-27T20:30:53.963Z,5.10
2022-12-27T20:33:20.573Z,5.10
2022-12-27T20:35:54.785Z,5.20
2022-12-27T20:38:21.643Z,5.10
2022-12-27T20:41:10.566Z,5.00
2022-12-27T20:56:30.774Z,5.00
2022-12-27T20:58:57.470Z,5.00
2022-12-27T21:01:25.543Z,5.80
2022-12-27T21:03:53.495Z,4.90
2022-12-27T21:06:22.929Z,5.70
2022-12-27T21:08:58.124Z,5.90
2022-12-27T21:11:27.456Z,5.50
2022-12-27T21:13:58.730Z,6.80
2022-12-27T21:16:27.348Z,5.30
2022-12-27T21:18:55.089Z,5.20
2022-12-27T21:21:26.739Z,5.60
2022-12-27T21:24:00.824Z,5.20
2022-12-27T21:26:30.566Z,5.20
2022-12-27T21:28:59.240Z,5.20
2022-12-27T21:31:26.913Z,5.60
2022-12-27T21:33:53.595Z,6.60
2022-12-27T21:36:33.224Z,5.30
2022-12-27T21:39:01.380Z,5.20
2022-12-27T21:41:29.404Z,5.20
2022-12-27T22:18:50.666Z,5.50
2022-12-27T22:21:28.843Z,5.60
2022-12-27T22:24:22.837Z,5.60
2022-12-27T22:26:54.494Z,5.40
2022-12-27T22:29:21.181Z,5.80
2022-12-27T22:31:51.254Z,5.50
2022-12-27T22:34:18.471Z,5.70
2022-12-27T22:36:45.057Z,6.30
2022-12-27T22:39:14.325Z,5.50
2022-12-27T22:41:41.117Z,5.70
2022-12-27T22:44:24.681Z,5.50
2022-12-27T22:49:48.889Z,5.50
2022-12-27T22:52:20.636Z,5.60
2022-12-27T22:55:04.724Z,6.00
2022-12-27T22:58:01.274Z,5.80
2022-12-27T23:00:28.270Z,5.60
2022-12-27T23:02:54.829Z,5.70
2022-12-27T23:05:22.971Z,6.30
2022-12-27T23:08:06.126Z,5.60
2022-12-27T23:11:04.714Z,5.60
2022-12-27T23:13:56.575Z,5.70
2022-12-27T23:16:24.234Z,5.60
2022-12-27T23:18:50.833Z,5.70
2022-12-27T23:21:24.568Z,6.00
2022-12-27T23:23:55.325Z,5.50
2022-12-27T23:26:48.113Z,5.70
2022-12-27T23:29:18.661Z,5.80
2022-12-27T23:32:38.716Z,6.60
2022-12-27T23:35:05.707Z,5.70
2022-12-27T23:37:35.963Z,5.80
2022-12-27T23:40:54.743Z,5.90
